Time,TemperatureF,DewpointF,PressureIn,WindDirection,WindDirectionDegrees,WindSpeedMPH,WindSpeedGustMPH,Humidity,HourlyPrecipIn,Conditions,Clouds,dailyrainin,SoftwareType,DateUTC
2013-07-24 00:01:00,45.6,43.6,30.39,South,170,0.0,0.0,93,0.00,,---,0.00,VWS V12.08,2013-07-24 04:01:00,
2013-07-24 00:06:00,78.9,72.1,29.60,SW,236,0.0,13.1,80,29.08,,---,0.00,VWS V12.08,2013-07-24 04:06:00,
2013-07-24 00:11:00,78.9,72.2,29.60,WNW,291,0.0,13.1,80,29.08,,---,0.00,VWS V12.08,2013-07-24 04:11:00,
2013-07-24 00:16:00,78.8,72.2,29.60,WSW,238,0.0,13.1,80,29.08,,---,0.00,VWS V12.08,2013-07-24 04:16:00,
2013-07-24 00:21:00,78.7,72.2,29.60,WNW,288,8.2,13.1,80,29.08,,---,0.00,VWS V12.08,2013-07-24 04:21:00,
2013-07-24 00:26:00,78.4,71.9,29.60,WSW,253,8.3,13.1,81,29.08,,---,0.00,VWS V12.08,2013-07-24 04:26:00,
2013-07-24 00:31:00,78.1,71.7,29.60,WSW,250,9.3,13.1,81,29.08,,---,0.00,VWS V12.08,2013-07-24 04:31:00,
2013-07-24 00:36:00,78.4,71.9,29.60,SW,226,7.1,13.1,81,29.08,,---,0.00,VWS V12.08,2013-07-24 04:36:00,
2013-07-24 00:41:00,78.3,71.9,29.60,West,263,5.0,13.1,81,29.08,,---,0.00,VWS V12.08,2013-07-24 04:41:00,
2013-07-24 00:46:00,78.0,71.7,29.60,WNW,297,5.4,13.1,81,29.08,,---,0.00,VWS V12.08,2013-07-24 04:46:00,
2013-07-24 00:51:00,78.4,72.1,29.60,West,269,5.7,13.1,81,29.08,,---,0.00,VWS V12.08,2013-07-24 04:51:00,
2013-07-24 00:56:00,77.9,71.6,29.60,West,274,5.8,13.1,81,29.08,,---,0.00,VWS V12.08,2013-07-24 04:56:00,
2013-07-24 01:01:00,78.1,71.9,29.61,NW,314,0.0,13.1,81,29.08,,---,0.00,VWS V12.08,2013-07-24 05:01:00,
2013-07-24 01:06:00,77.9,71.8,29.61,WSW,253,5.3,13.1,82,29.08,,---,0.00,VWS V12.08,2013-07-24 05:06:00,
2013-07-24 01:11:00,77.9,71.9,29.60,NW,315,3.4,13.1,82,29.08,,---,0.00,VWS V12.08,2013-07-24 05:11:00,
2013-07-24 01:15:00,77.8,71.9,29.61,WNW,284,3.5,13.1,82,29.08,,---,0.00,VWS V12.08,2013-07-24 05:15:00,
2013-07-24 01:20:00,77.8,72.0,29.61,West,277,0.0,13.1,82,29.08,,---,0.00,VWS V12.08,2013-07-24 05:20:00,
2013-07-24 01:25:00,77.5,71.8,29.61,West,264,2.9,13.1,83,29.08,,---,0.00,VWS V12.08,2013-07-24 05:25:00,
2013-07-24 01:30:00,77.1,71.5,29.61,West,280,3.2,13.1,83,29.08,,---,0.00,VWS V12.08,2013-07-24 05:30:00,
2013-07-24 01:35:00,77.4,71.8,29.60,WNW,283,3.4,13.1,83,29.08,,---,0.00,VWS V12.08,2013-07-24 05:35:00,
2013-07-24 01:36:00,77.4,71.8,29.60,West,260,2.5,13.1,83,29.08,,---,0.00,VWS V12.08,2013-07-24 05:36:00,
2013-07-24 01:41:00,77.4,71.9,29.60,West,271,6.2,13.1,83,29.08,,---,0.00,VWS V12.08,2013-07-24 05:41:00,
2013-07-24 01:46:00,77.1,71.7,29.60,West,266,0.0,13.1,83,29.08,,---,0.00,VWS V12.08,2013-07-24 05:46:00,
2013-07-24 01:51:00,76.9,71.6,29.60,WNW,283,0.0,13.1,84,29.08,,---,0.00,VWS V12.08,2013-07-24 05:51:00,
2013-07-24 01:56:00,77.3,72.1,29.60,WSW,238,0.0,13.1,84,29.08,,---,0.00,VWS V12.08,2013-07-24 05:56:00,
2013-07-24 02:00:00,76.7,71.6,29.60,West,262,0.0,13.1,84,29.08,,---,0.00,VWS V12.08,2013-07-24 06:00:00,
2013-07-24 02:05:00,77.1,72.0,29.60,WNW,283,0.0,13.1,84,29.08,,---,0.00,VWS V12.08,2013-07-24 06:05:00,
2013-07-24 02:10:00,76.8,71.9,29.60,WNW,288,3.4,13.1,85,29.08,,---,0.00,VWS V12.08,2013-07-24 06:10:00,
2013-07-24 02:15:00,76.7,71.9,29.60,WNW,291,0.0,13.1,85,29.08,,---,0.00,VWS V12.08,2013-07-24 06:15:00,
2013-07-24 02:20:00,76.7,71.9,29.60,WSW,250,2.7,13.1,85,29.08,,---,0.00,VWS V12.08,2013-07-24 06:20:00,
2013-07-24 02:25:00,76.7,71.9,29.59,WNW,284,0.0,13.1,85,29.08,,---,0.00,VWS V12.08,2013-07-24 06:25:00,
2013-07-24 02:30:00,76.3,71.5,29.59,WSW,253,5.2,13.1,85,29.08,,---,0.00,VWS V12.08,2013-07-24 06:30:00,
2013-07-24 02:35:00,76.4,71.6,29.60,WSW,250,0.0,13.1,85,29.08,,---,0.00,VWS V12.08,2013-07-24 06:35:00,
2013-07-24 02:40:00,76.7,72.0,29.60,SSE,167,0.0,13.1,85,29.08,,---,0.00,VWS V12.08,2013-07-24 06:40:00,
2013-07-24 02:45:00,76.3,71.6,29.60,West,271,4.2,13.1,85,29.08,,---,0.00,VWS V12.08,2013-07-24 06:45:00,
2013-07-24 02:50:00,76.4,71.8,29.60,WSW,242,0.0,13.1,86,29.08,,---,0.00,VWS V12.08,2013-07-24 06:50:00,
2013-07-24 02:55:00,76.4,71.9,29.59,SW,231,6.2,13.1,86,29.08,,---,0.00,VWS V12.08,2013-07-24 06:55:00,
2013-07-24 03:00:00,76.1,71.7,29.59,SW,225,0.0,13.1,86,29.08,,---,0.00,VWS V12.08,2013-07-24 07:00:00,
2013-07-24 03:05:00,76.4,72.1,29.59,WNW,298,0.0,13.1,87,29.08,,---,0.00,VWS V12.08,2013-07-24 07:05:00,
2013-07-24 03:10:00,76.4,72.2,29.59,WSW,239,4.7,13.1,87,29.08,,---,0.00,VWS V12.08,2013-07-24 07:10:00,
2013-07-24 03:15:00,76.3,72.3,29.59,WSW,253,0.0,13.1,87,29.08,,---,0.00,VWS V12.08,2013-07-24 07:15:00,
2013-07-24 03:20:00,76.0,72.1,29.59,WSW,253,0.0,13.1,88,29.08,,---,0.00,VWS V12.08,2013-07-24 07:20:00,
2013-07-24 03:25:00,75.9,72.1,29.59,WSW,253,0.0,13.1,88,29.08,,---,0.00,VWS V12.08,2013-07-24 07:25:00,
2013-07-24 03:30:00,76.0,72.3,29.59,WSW,253,0.0,13.1,88,29.08,,---,0.00,VWS V12.08,2013-07-24 07:30:00,
2013-07-24 03:35:00,75.9,72.3,29.59,WSW,253,0.0,13.1,89,29.08,,---,0.00,VWS V12.08,2013-07-24 07:35:00,
2013-07-24 03:40:00,75.9,72.4,29.59,WSW,253,0.0,13.1,89,29.08,,---,0.00,VWS V12.08,2013-07-24 07:40:00,
2013-07-24 03:45:00,75.7,72.3,29.59,WSW,253,0.0,13.1,89,29.08,,---,0.00,VWS V12.08,2013-07-24 07:45:00,
2013-07-24 03:50:00,75.7,72.5,29.59,SW,232,0.0,0.0,90,29.08,,---,0.00,VWS V12.08,2013-07-24 07:50:00,
2013-07-24 03:55:00,42.1,33.3,30.20,NNW,343,3.4,5.8,71,0.00,,---,0.00,VWS V12.08,2013-07-24 07:55:00,
2013-07-24 04:00:00,75.3,72.3,29.59,West,277,0.0,0.0,90,29.08,,---,0.00,VWS V12.08,2013-07-24 08:00:00,
2013-07-24 04:05:00,75.5,72.5,29.59,SW,235,2.5,0.0,90,29.08,,---,0.00,VWS V12.08,2013-07-24 08:05:00,
2013-07-24 04:10:00,29.3,28.0,30.01,WNW,291,0.0,0.0,95,0.00,,---,0.00,VWS V12.08,2013-07-24 08:10:00,
2013-07-24 04:15:00,28.2,22.4,30.17,SW,225,3.5,7.8,78,0.03,,---,0.03,VWS V12.08,2013-07-24 08:15:00,
2013-07-24 04:20:00,30.1,25.8,29.83,West,266,20.9,38.0,84,2.30,,---,0.84,VWS V12.08,2013-07-24 08:20:00,
2013-07-24 04:25:00,37.6,35.2,29.32,South,180,0.0,45.1,91,1.13,,---,1.03,VWS V12.08,2013-07-24 08:25:00,
2013-07-24 04:30:00,44.4,40.6,29.62,WSW,239,13.3,18.0,86,0.54,,---,0.50,VWS V12.08,2013-07-24 08:30:00,
2013-07-24 04:35:00,43.7,43.7,29.87,North,6,0.0,17.8,100,0.63,,---,0.63,VWS V12.08,2013-07-24 08:35:00,
2013-07-24 04:40:00,75.7,72.7,29.59,SSW,211,0.0,0.0,90,29.08,,---,0.00,VWS V12.08,2013-07-24 08:40:00,
2013-07-24 04:45:00,37.7,32.5,30.21,SSW,208,0.0,0.0,81,0.00,,---,0.00,VWS V12.08,2013-07-24 08:45:00,
2013-07-24 04:50:00,33.4,31.8,30.30,NE,38,0.0,0.0,94,0.00,,---,0.00,VWS V12.08,2013-07-24 08:50:00,
2013-07-24 04:55:00,54.0,54.0,29.58,WNW,285,19.9,23.6,100,0.03,,---,0.03,VWS V12.08,2013-07-24 08:55:00,
2013-07-24 05:00:00,36.6,36.6,30.19,North,4,0.0,12.4,100,0.55,,---,0.55,VWS V12.08,2013-07-24 09:00:00,
2013-07-24 05:05:00,34.2,30.1,30.25,South,186,0.0,17.3,85,0.01,,---,0.00,VWS V12.08,2013-07-24 09:05:00,
2013-07-24 05:10:00,52.4,52.4,29.93,SSE,162,4.3,11.6,100,0.13,,---,0.13,VWS V12.08,2013-07-24 09:10:00,
2013-07-24 05:15:00,35.5,27.2,30.22,West,277,11.2,30.0,71,0.14,,---,0.01,VWS V12.08,2013-07-24 09:15:00,
2013-07-24 05:20:00,39.2,31.7,30.29,WSW,245,4.7,9.6,74,0.00,,---,0.00,VWS V12.08,2013-07-24 09:20:00,
2013-07-24 05:25:00,36.8,36.8,30.18,North,354,0.0,7.7,100,0.55,,---,0.55,VWS V12.08,2013-07-24 09:25:00,
2013-07-24 05:30:00,49.6,48.3,29.65,SE,124,5.3,15.3,95,0.00,,---,0.00,VWS V12.08,2013-07-24 09:30:00,
2013-07-24 05:35:00,43.2,39.8,30.11,North,359,5.2,6.1,88,0.00,,---,0.00,VWS V12.08,2013-07-24 09:35:00,
2013-07-24 05:40:00,43.1,40.1,30.12,NNW,342,0.0,10.8,89,0.00,,---,0.00,VWS V12.08,2013-07-24 09:40:00,
2013-07-24 05:45:00,41.2,41.2,30.10,South,173,0.0,11.1,100,0.00,,---,0.00,VWS V12.08,2013-07-24 09:45:00,
2013-07-24 05:50:00,41.4,39.5,30.53,North,10,5.1,13.7,93,0.00,,---,0.00,VWS V12.08,2013-07-24 09:50:00,
2013-07-24 05:55:00,74.3,71.6,29.62,West,266,5.2,0.0,91,29.08,,---,0.00,VWS V12.08,2013-07-24 09:55:00,
2013-07-24 06:00:00,58.8,58.8,30.14,East,90,0.0,0.0,100,0.00,,---,0.00,VWS V12.08,2013-07-24 10:00:00,
2013-07-24 06:05:00,42.6,38.5,30.18,SW,231,0.0,23.0,85,0.40,,---,0.00,VWS V12.08,2013-07-24 10:05:00,
2013-07-24 06:10:00,38.5,31.1,29.91,WNW,298,10.4,25.0,74,0.62,,---,0.40,VWS V12.08,2013-07-24 10:10:00,
2013-07-24 06:15:00,33.4,26.7,30.17,North,0,0.0,6.5,76,0.00,,---,0.00,VWS V12.08,2013-07-24 10:15:00,
2013-07-24 06:20:00,42.7,37.6,29.75,NW,307,9.3,16.6,82,0.00,,---,0.00,VWS V12.08,2013-07-24 10:20:00,
2013-07-24 06:25:00,44.5,38.0,29.74,WNW,301,10.5,17.8,78,0.00,,---,0.00,VWS V12.08,2013-07-24 10:25:00,
2013-07-24 06:30:00,74.2,71.6,29.63,SW,235,4.4,0.0,92,29.08,,---,0.00,VWS V12.08,2013-07-24 10:30:00,
2013-07-24 06:35:00,74.3,71.7,29.64,WNW,283,5.3,13.1,92,29.08,,---,0.00,VWS V12.08,2013-07-24 10:35:00,
2013-07-24 06:40:00,74.6,71.9,29.64,SW,232,0.0,0.0,91,29.08,,---,0.00,VWS V12.08,2013-07-24 10:40:00,
2013-07-24 06:45:00,46.6,38.0,29.71,West,276,17.2,18.0,72,0.00,,---,0.00,VWS V12.08,2013-07-24 10:45:00,
2013-07-24 06:50:00,74.3,71.7,29.64,SSW,202,0.0,13.1,92,29.08,,---,0.00,VWS V12.08,2013-07-24 10:50:00,
2013-07-24 06:55:00,74.2,71.6,29.64,WSW,246,0.0,13.1,92,29.08,,---,0.00,VWS V12.08,2013-07-24 10:55:00,
2013-07-24 07:00:00,74.2,71.6,29.64,West,267,3.4,13.1,92,29.08,,---,0.00,VWS V12.08,2013-07-24 11:00:00,
2013-07-24 07:05:00,74.4,71.8,29.64,WSW,250,5.3,13.1,92,29.08,,---,0.00,VWS V12.08,2013-07-24 11:05:00,
2013-07-24 07:10:00,74.4,71.7,29.64,NW,322,4.9,13.1,91,29.08,,---,0.00,VWS V12.08,2013-07-24 11:10:00,
2013-07-24 07:15:00,74.5,71.8,29.64,NW,314,6.8,13.1,91,29.08,,---,0.00,VWS V12.08,2013-07-24 11:15:00,
2013-07-24 07:20:00,74.5,71.7,29.65,NW,311,5.6,13.1,91,29.08,,---,0.00,VWS V12.08,2013-07-24 11:20:00,
2013-07-24 07:25:00,74.5,71.6,29.65,NW,304,7.3,13.1,91,29.08,,---,0.00,VWS V12.08,2013-07-24 11:25:00,
2013-07-24 07:30:00,74.7,71.6,29.65,WNW,301,6.6,13.1,90,29.08,,---,0.00,VWS V12.08,2013-07-24 11:30:00,
2013-07-24 07:35:00,74.6,71.4,29.65,WNW,292,8.9,13.1,90,29.08,,---,0.00,VWS V12.08,2013-07-24 11:35:00,
2013-07-24 07:40:00,75.0,71.5,29.66,WNW,288,6.6,13.1,89,29.08,,---,0.00,VWS V12.08,2013-07-24 11:40:00,
2013-07-24 07:45:00,75.0,71.1,29.66,West,269,4.9,13.1,88,29.08,,---,0.00,VWS V12.08,2013-07-24 11:45:00,
2013-07-24 07:50:00,75.1,70.8,29.66,WNW,294,7.7,13.1,87,29.08,,---,0.00,VWS V12.08,2013-07-24 11:50:00,
2013-07-24 07:55:00,75.4,70.9,29.66,NW,309,6.0,13.1,86,29.08,,---,0.00,VWS V12.08,2013-07-24 11:55:00,
2013-07-24 08:00:00,75.5,70.6,29.66,NNW,335,5.7,13.1,85,29.08,,---,0.00,VWS V12.08,2013-07-24 12:00:00,
2013-07-24 08:05:00,75.7,70.5,29.66,West,267,4.9,0.0,84,29.08,,---,0.00,VWS V12.08,2013-07-24 12:05:00,
2013-07-24 08:10:00,76.0,70.6,29.66,NW,305,6.7,13.1,83,29.08,,---,0.00,VWS V12.08,2013-07-24 12:10:00,
2013-07-24 08:15:00,76.3,70.6,29.67,NW,309,9.8,13.1,83,29.08,,---,0.00,VWS V12.08,2013-07-24 12:15:00,
2013-07-24 08:20:00,76.4,70.2,29.67,WNW,290,10.7,13.5,81,29.08,,---,0.00,VWS V12.08,2013-07-24 12:20:00,
2013-07-24 08:25:00,76.7,70.2,29.67,West,281,7.5,13.5,80,29.08,,---,0.00,VWS V12.08,2013-07-24 12:25:00,
2013-07-24 08:30:00,77.0,70.1,29.67,NW,325,6.2,14.8,79,29.08,,---,0.00,VWS V12.08,2013-07-24 12:30:00,
2013-07-24 08:35:00,35.2,35.2,29.90,North,350,3.3,8.0,100,0.12,,---,0.12,VWS V12.08,2013-07-24 12:35:00,
2013-07-24 08:40:00,77.3,69.6,29.67,NW,316,13.7,14.8,77,29.08,,---,0.00,VWS V12.08,2013-07-24 12:40:00,
2013-07-24 08:45:00,77.7,69.5,29.67,WNW,302,2.8,15.3,76,29.08,,---,0.00,VWS V12.08,2013-07-24 12:45:00,
2013-07-24 08:50:00,78.0,69.5,29.68,West,270,12.1,15.4,75,29.08,,---,0.00,VWS V12.08,2013-07-24 12:50:00,
2013-07-24 08:55:00,78.1,69.4,29.68,WNW,301,8.8,15.4,75,29.08,,---,0.00,VWS V12.08,2013-07-24 12:55:00,
2013-07-24 09:00:00,78.3,69.4,29.68,NW,308,13.9,15.8,74,29.08,,---,0.00,VWS V12.08,2013-07-24 13:00:00,
2013-07-24 09:05:00,35.2,35.2,29.90,North,350,3.3,8.0,100,0.12,,---,0.12,VWS V12.08,2013-07-24 13:05:00,
2013-07-24 09:10:00,79.0,69.6,29.69,NW,311,9.9,15.8,73,29.08,,---,0.00,VWS V12.08,2013-07-24 13:10:00,
2013-07-24 09:15:00,79.4,69.6,29.69,WNW,295,9.3,15.8,72,29.08,,---,0.00,VWS V12.08,2013-07-24 13:15:00,
2013-07-24 09:20:00,79.9,69.3,29.69,WNW,292,6.6,15.8,70,29.08,,---,0.00,VWS V12.08,2013-07-24 13:20:00,
2013-07-24 09:25:00,80.3,69.0,29.69,NNW,329,3.5,15.8,69,29.08,,---,0.00,VWS V12.08,2013-07-24 13:25:00,
2013-07-24 09:30:00,80.6,68.7,29.69,NW,308,9.1,15.8,67,29.08,,---,0.00,VWS V12.08,2013-07-24 13:30:00,
2013-07-24 09:35:00,81.0,69.2,29.69,WNW,288,8.1,15.8,67,29.08,,---,0.00,VWS V12.08,2013-07-24 13:35:00,
2013-07-24 09:40:00,81.2,69.2,29.69,NW,326,5.3,15.8,67,29.08,,---,0.00,VWS V12.08,2013-07-24 13:40:00,
2013-07-24 09:45:00,81.4,69.3,29.69,NNE,20,4.3,15.8,67,29.08,,---,0.00,VWS V12.08,2013-07-24 13:45:00,
2013-07-24 09:50:00,81.5,69.0,29.69,North,356,3.3,15.8,66,29.08,,---,0.00,VWS V12.08,2013-07-24 13:50:00,
2013-07-24 09:55:00,81.7,68.8,29.69,NNW,340,7.6,15.8,65,29.08,,---,0.00,VWS V12.08,2013-07-24 13:55:00,
2013-07-24 10:00:00,81.7,68.6,29.69,WSW,256,5.5,15.8,65,29.08,,---,0.00,VWS V12.08,2013-07-24 14:00:00,
2013-07-24 10:05:00,82.0,68.7,29.70,NW,308,4.8,15.8,64,29.08,,---,0.00,VWS V12.08,2013-07-24 14:05:00,
2013-07-24 10:10:00,82.1,68.6,29.70,NW,304,7.3,15.8,64,29.08,,---,0.00,VWS V12.08,2013-07-24 14:10:00,
2013-07-24 10:15:00,82.2,68.7,29.70,North,359,3.3,15.8,64,29.08,,---,0.00,VWS V12.08,2013-07-24 14:15:00,
2013-07-24 10:20:00,81.8,68.3,29.70,North,356,6.8,15.8,64,29.08,,---,0.00,VWS V12.08,2013-07-24 14:20:00,
2013-07-24 10:25:00,82.1,68.3,29.70,NW,319,6.7,15.8,63,29.08,,---,0.00,VWS V12.08,2013-07-24 14:25:00,
2013-07-24 10:30:00,82.4,68.7,29.70,North,0,4.5,15.8,63,29.08,,---,0.00,VWS V12.08,2013-07-24 14:30:00,
2013-07-24 10:34:00,82.8,68.6,29.70,West,269,3.3,15.8,62,29.08,,---,0.00,VWS V12.08,2013-07-24 14:34:00,
2013-07-24 10:39:00,82.4,68.0,29.70,NNE,18,3.2,15.8,62,29.08,,---,0.00,VWS V12.08,2013-07-24 14:39:00,
2013-07-24 10:44:00,82.4,68.1,29.71,West,277,4.3,15.8,62,29.08,,---,0.00,VWS V12.08,2013-07-24 14:44:00,
2013-07-24 10:49:00,83.1,68.7,29.71,West,271,8.1,15.8,62,29.08,,---,0.00,VWS V12.08,2013-07-24 14:49:00,
2013-07-24 10:54:00,83.2,68.8,29.71,WNW,301,10.5,15.8,62,29.08,,---,0.00,VWS V12.08,2013-07-24 14:54:00,
2013-07-24 10:59:00,30.1,25.8,29.83,West,266,20.9,38.0,84,2.30,,---,0.84,VWS V12.08,2013-07-24 14:59:00,
2013-07-24 11:04:00,83.2,68.7,29.72,NW,312,5.4,15.8,62,29.08,,---,0.00,VWS V12.08,2013-07-24 15:04:00,
2013-07-24 11:09:00,83.4,68.9,29.72,NNW,333,10.0,15.8,62,29.08,,---,0.00,VWS V12.08,2013-07-24 15:09:00,
2013-07-24 11:14:00,83.4,68.8,29.72,WNW,294,10.2,15.8,62,29.08,,---,0.00,VWS V12.08,2013-07-24 15:14:00,
2013-07-24 11:19:00,83.6,68.6,29.72,WNW,283,7.9,15.8,61,29.08,,---,0.00,VWS V12.08,2013-07-24 15:19:00,
2013-07-24 11:24:00,83.2,68.5,29.73,West,277,8.3,15.8,61,29.08,,---,0.00,VWS V12.08,2013-07-24 15:24:00,
2013-07-24 11:29:00,39.3,39.3,29.46,North,1,10.8,31.8,100,1.39,,---,1.33,VWS V12.08,2013-07-24 15:29:00,
2013-07-24 11:34:00,30.1,25.8,29.83,West,266,20.9,38.0,84,2.30,,---,0.84,VWS V12.08,2013-07-24 15:34:00,
2013-07-24 11:39:00,82.8,68.7,29.73,West,274,14.2,0.0,63,29.08,,---,0.00,VWS V12.08,2013-07-24 15:39:00,
2013-07-24 11:44:00,82.4,68.8,29.73,NNW,332,13.2,0.0,64,29.08,,---,0.00,VWS V12.08,2013-07-24 15:44:00,
2013-07-24 11:49:00,82.1,68.7,29.73,NW,321,12.1,0.0,64,29.08,,---,0.00,VWS V12.08,2013-07-24 15:49:00,
2013-07-24 11:54:00,29.3,28.0,30.01,WNW,291,0.0,0.0,95,0.00,,---,0.00,VWS V12.08,2013-07-24 15:54:00,
2013-07-24 11:59:00,81.2,67.4,29.74,WNW,300,6.5,0.0,63,29.08,,---,0.00,VWS V12.08,2013-07-24 15:59:00,
2013-07-24 12:04:00,39.6,39.6,29.46,North,8,15.7,30.4,100,1.42,,---,1.42,VWS V12.08,2013-07-24 16:04:00,
2013-07-24 12:09:00,36.3,26.9,29.93,WNW,297,4.7,21.4,68,0.00,,---,0.00,VWS V12.08,2013-07-24 16:09:00,
2013-07-24 12:14:00,32.5,32.5,29.58,WNW,300,9.3,17.1,100,0.00,,---,0.00,VWS V12.08,2013-07-24 16:14:00,
2013-07-24 12:19:00,35.2,35.2,29.90,North,350,3.3,8.0,100,0.12,,---,0.12,VWS V12.08,2013-07-24 16:19:00,
2013-07-24 12:24:00,80.3,67.1,29.74,WNW,300,10.5,0.0,64,29.08,,---,0.00,VWS V12.08,2013-07-24 16:24:00,
2013-07-24 12:29:00,35.5,27.2,30.22,West,277,11.2,30.0,71,0.14,,---,0.01,VWS V12.08,2013-07-24 16:29:00,
2013-07-24 12:34:00,45.2,45.2,29.96,NNW,339,0.0,8.5,100,0.27,,---,0.27,VWS V12.08,2013-07-24 16:34:00,
2013-07-24 12:39:00,37.8,33.1,30.39,NW,304,4.4,8.1,83,0.00,,---,0.00,VWS V12.08,2013-07-24 16:39:00,
2013-07-24 12:44:00,34.6,30.6,30.25,South,184,5.2,10.0,85,0.00,,---,0.00,VWS V12.08,2013-07-24 16:44:00,
2013-07-24 12:49:00,33.4,31.8,30.30,NE,38,0.0,0.0,94,0.00,,---,0.00,VWS V12.08,2013-07-24 16:49:00,
2013-07-24 12:54:00,42.1,42.1,29.99,NNW,346,0.0,12.0,100,0.25,,---,0.25,VWS V12.08,2013-07-24 16:54:00,
2013-07-24 12:59:00,36.8,36.8,30.18,North,354,0.0,7.7,100,0.55,,---,0.55,VWS V12.08,2013-07-24 16:59:00,
2013-07-24 13:04:00,36.4,29.6,30.22,WNW,295,0.0,0.0,76,0.00,,---,0.00,VWS V12.08,2013-07-24 17:04:00,
2013-07-24 13:09:00,49.4,48.1,29.64,SW,214,1.6,8.3,95,0.00,,---,0.00,VWS V12.08,2013-07-24 17:09:00,
2013-07-24 13:14:00,37.4,31.2,30.43,WNW,302,0.0,7.8,78,0.00,,---,0.00,VWS V12.08,2013-07-24 17:14:00,
2013-07-24 13:19:00,36.9,28.2,29.94,SSW,212,6.6,17.4,70,0.00,,---,0.00,VWS V12.08,2013-07-24 17:19:00,
2013-07-24 13:24:00,36.3,24.0,29.83,WNW,283,10.6,26.2,60,0.00,,---,0.00,VWS V12.08,2013-07-24 17:24:00,
2013-07-24 13:29:00,43.2,39.8,30.11,North,359,5.2,6.1,88,0.00,,---,0.00,VWS V12.08,2013-07-24 17:29:00,
2013-07-24 13:34:00,39.9,35.8,30.61,NW,322,0.0,6.6,85,0.00,,---,0.00,VWS V12.08,2013-07-24 17:34:00,
2013-07-24 13:39:00,37.2,32.8,30.42,NNW,339,5.8,15.9,84,0.00,,---,0.00,VWS V12.08,2013-07-24 17:39:00,
2013-07-24 13:44:00,40.3,36.0,30.42,NNW,333,0.0,30.7,84,0.11,,---,0.11,VWS V12.08,2013-07-24 17:44:00,
2013-07-24 13:49:00,42.0,38.4,30.18,SW,231,0.0,0.0,87,0.00,,---,0.00,VWS V12.08,2013-07-24 17:49:00,
2013-07-24 13:54:00,82.7,66.3,29.74,NW,321,7.9,0.0,58,29.08,,---,0.00,VWS V12.08,2013-07-24 17:54:00,
2013-07-24 13:59:00,33.1,33.1,29.76,NW,308,5.1,14.2,100,0.22,,---,0.22,VWS V12.08,2013-07-24 17:59:00,
2013-07-24 14:04:00,82.7,66.5,29.74,WSW,246,7.9,0.0,58,29.08,,---,0.00,VWS V12.08,2013-07-24 18:04:00,
2013-07-24 14:09:00,42.5,37.6,29.96,West,260,5.5,13.0,83,0.00,,---,0.00,VWS V12.08,2013-07-24 18:09:00,
2013-07-24 14:14:00,42.6,37.9,29.75,WSW,250,0.0,11.9,83,0.00,,---,0.00,VWS V12.08,2013-07-24 18:14:00,
2013-07-24 14:19:00,43.5,38.3,29.75,West,271,5.9,18.0,82,0.00,,---,0.00,VWS V12.08,2013-07-24 18:19:00,
2013-07-24 14:24:00,44.5,38.8,29.74,WSW,239,7.9,14.0,80,0.00,,---,0.00,VWS V12.08,2013-07-24 18:24:00,
2013-07-24 14:29:00,45.8,38.0,29.72,NW,326,12.3,22.6,74,0.00,,---,0.00,VWS V12.08,2013-07-24 18:29:00,
2013-07-24 14:34:00,83.2,65.4,29.76,West,274,6.3,19.6,55,29.08,,---,0.00,VWS V12.08,2013-07-24 18:34:00,
2013-07-24 14:39:00,46.6,38.0,29.71,West,276,17.2,18.0,72,0.00,,---,0.00,VWS V12.08,2013-07-24 18:39:00,
2013-07-24 14:44:00,83.4,65.2,29.76,WNW,300,7.4,19.6,54,29.08,,---,0.00,VWS V12.08,2013-07-24 18:44:00,
2013-07-24 14:49:00,83.5,65.3,29.76,NW,307,6.2,19.6,54,29.08,,---,0.00,VWS V12.08,2013-07-24 18:49:00,
2013-07-24 14:54:00,83.4,65.0,29.77,WNW,297,14.0,19.6,54,29.08,,---,0.00,VWS V12.08,2013-07-24 18:54:00,
2013-07-24 14:59:00,83.2,64.8,29.77,NW,321,9.3,0.0,54,29.08,,---,0.00,VWS V12.08,2013-07-24 18:59:00,
2013-07-24 15:04:00,83.0,64.3,29.77,WNW,288,9.0,19.6,53,29.08,,---,0.00,VWS V12.08,2013-07-24 19:04:00,
2013-07-24 15:09:00,83.4,64.9,29.76,WNW,298,7.3,19.6,54,29.08,,---,0.00,VWS V12.08,2013-07-24 19:09:00,
2013-07-24 15:14:00,83.4,64.7,29.76,West,278,6.7,19.6,53,29.08,,---,0.00,VWS V12.08,2013-07-24 19:14:00,
2013-07-24 15:19:00,83.0,64.6,29.76,West,277,8.4,19.6,54,29.08,,---,0.00,VWS V12.08,2013-07-24 19:19:00,
2013-07-24 15:24:00,83.2,65.0,29.76,WSW,249,7.7,19.6,54,29.08,,---,0.00,VWS V12.08,2013-07-24 19:24:00,
2013-07-24 15:29:00,82.5,64.4,29.76,NW,308,6.5,19.6,54,29.08,,---,0.00,VWS V12.08,2013-07-24 19:29:00,
2013-07-24 15:34:00,82.5,64.4,29.76,NW,316,11.9,19.6,54,29.08,,---,0.00,VWS V12.08,2013-07-24 19:34:00,
2013-07-24 15:39:00,82.5,64.4,29.76,NNW,345,7.9,19.6,54,29.08,,---,0.00,VWS V12.08,2013-07-24 19:39:00,
2013-07-24 15:44:00,82.2,64.6,29.76,WNW,298,12.0,19.6,55,29.08,,---,0.00,VWS V12.08,2013-07-24 19:44:00,
2013-07-24 15:49:00,81.7,63.8,29.76,NW,312,13.9,19.6,55,29.08,,---,0.00,VWS V12.08,2013-07-24 19:49:00,
2013-07-24 15:54:00,81.8,64.4,29.76,WNW,283,12.7,0.0,56,29.08,,---,0.00,VWS V12.08,2013-07-24 19:54:00,
2013-07-24 15:59:00,81.6,64.2,29.76,NW,307,7.0,19.6,56,29.08,,---,0.00,VWS V12.08,2013-07-24 19:59:00,
2013-07-24 16:04:00,81.6,63.8,29.76,SSW,211,0.0,19.6,55,29.08,,---,0.00,VWS V12.08,2013-07-24 20:04:00,
2013-07-24 16:09:00,81.6,63.9,29.76,NW,325,7.9,19.6,55,29.08,,---,0.00,VWS V12.08,2013-07-24 20:09:00,
2013-07-24 16:14:00,81.5,64.2,29.76,North,6,8.1,19.6,56,29.08,,---,0.00,VWS V12.08,2013-07-24 20:14:00,
2013-07-24 16:19:00,81.5,64.5,29.76,WNW,302,6.9,19.6,56,29.08,,---,0.00,VWS V12.08,2013-07-24 20:19:00,
2013-07-24 16:24:00,81.3,64.6,29.76,North,359,3.5,19.6,57,29.08,,---,0.00,VWS V12.08,2013-07-24 20:24:00,
2013-07-24 16:29:00,81.3,64.3,29.76,WNW,297,8.5,19.6,56,29.08,,---,0.00,VWS V12.08,2013-07-24 20:29:00,
2013-07-24 16:34:00,81.1,63.6,29.76,NW,312,6.3,19.6,55,29.08,,---,0.00,VWS V12.08,2013-07-24 20:34:00,
2013-07-24 16:39:00,81.1,63.9,29.76,NW,321,7.7,19.6,56,29.08,,---,0.00,VWS V12.08,2013-07-24 20:39:00,
2013-07-24 16:44:00,81.0,64.0,29.76,North,359,7.9,19.6,56,29.08,,---,0.00,VWS V12.08,2013-07-24 20:44:00,
2013-07-24 16:49:00,80.7,63.5,29.76,NNE,13,4.7,19.6,56,29.08,,---,0.00,VWS V12.08,2013-07-24 20:49:00,
2013-07-24 16:54:00,80.5,63.5,29.76,NW,315,8.1,19.6,56,29.08,,---,0.00,VWS V12.08,2013-07-24 20:54:00,
2013-07-24 16:59:00,80.5,63.6,29.76,WNW,291,8.0,19.6,56,29.08,,---,0.00,VWS V12.08,2013-07-24 20:59:00,
2013-07-24 17:04:00,80.3,63.6,29.77,NW,309,0.0,19.6,57,29.08,,---,0.00,VWS V12.08,2013-07-24 21:04:00,
2013-07-24 17:09:00,80.1,63.3,29.76,NW,318,8.7,19.6,57,29.08,,---,0.00,VWS V12.08,2013-07-24 21:09:00,
2013-07-24 17:14:00,79.9,63.3,29.76,West,273,7.0,19.6,57,29.08,,---,0.00,VWS V12.08,2013-07-24 21:14:00,
2013-07-24 17:19:00,80.3,63.6,29.76,WNW,297,7.3,19.6,57,29.08,,---,0.00,VWS V12.08,2013-07-24 21:19:00,
2013-07-24 17:24:00,80.3,63.2,29.76,NW,307,11.0,19.6,56,29.08,,---,0.00,VWS V12.08,2013-07-24 21:24:00,
2013-07-24 17:29:00,80.4,63.2,29.76,NW,316,10.1,19.6,56,29.08,,---,0.00,VWS V12.08,2013-07-24 21:29:00,
2013-07-24 17:34:00,80.2,62.9,29.77,WNW,302,8.1,19.6,56,29.08,,---,0.00,VWS V12.08,2013-07-24 21:34:00,
2013-07-24 17:39:00,80.1,62.6,29.77,North,353,5.2,19.6,55,29.08,,---,0.00,VWS V12.08,2013-07-24 21:39:00,
2013-07-24 17:44:00,80.3,62.7,29.77,WNW,300,6.0,19.6,55,29.08,,---,0.00,VWS V12.08,2013-07-24 21:44:00,
2013-07-24 17:49:00,79.7,62.3,29.77,NW,318,6.1,19.6,55,29.08,,---,0.00,VWS V12.08,2013-07-24 21:49:00,
2013-07-24 17:53:00,79.4,62.3,29.77,WNW,287,11.1,19.6,56,29.08,,---,0.00,VWS V12.08,2013-07-24 21:53:00,
2013-07-24 17:58:00,79.8,62.5,29.77,NNW,332,4.8,19.6,56,29.08,,---,0.00,VWS V12.08,2013-07-24 21:58:00,
2013-07-24 18:03:00,80.1,62.7,29.77,NW,304,5.2,19.6,55,29.08,,---,0.00,VWS V12.08,2013-07-24 22:03:00,
2013-07-24 18:08:00,80.0,62.7,29.77,West,280,7.0,19.6,56,29.08,,---,0.00,VWS V12.08,2013-07-24 22:08:00,
2013-07-24 18:13:00,79.4,62.0,29.77,NNW,332,14.4,19.6,55,29.08,,---,0.00,VWS V12.08,2013-07-24 22:13:00,
2013-07-24 18:18:00,79.5,62.0,29.77,NW,308,8.1,19.6,55,29.08,,---,0.00,VWS V12.08,2013-07-24 22:18:00,
2013-07-24 18:23:00,79.1,61.6,29.77,West,271,5.8,0.0,55,29.08,,---,0.00,VWS V12.08,2013-07-24 22:23:00,
2013-07-24 18:29:00,79.4,62.0,29.78,SW,226,6.0,19.6,55,29.08,,---,0.00,VWS V12.08,2013-07-24 22:29:00,
2013-07-24 18:34:00,78.9,61.7,29.78,NW,308,6.3,19.6,56,29.08,,---,0.00,VWS V12.08,2013-07-24 22:34:00,
2013-07-24 18:39:00,78.9,61.5,29.78,NW,326,3.4,19.6,55,29.08,,---,0.00,VWS V12.08,2013-07-24 22:39:00,
2013-07-24 18:44:00,78.4,61.3,29.78,NW,321,5.3,19.6,56,29.08,,---,0.00,VWS V12.08,2013-07-24 22:44:00,
2013-07-24 18:49:00,78.2,61.1,29.78,NW,309,9.5,19.6,56,29.08,,---,0.00,VWS V12.08,2013-07-24 22:49:00,
2013-07-24 18:54:00,78.9,61.5,29.79,NW,311,9.3,19.6,55,29.08,,---,0.00,VWS V12.08,2013-07-24 22:54:00,
2013-07-24 18:59:00,78.2,60.5,29.79,WNW,283,13.4,19.6,55,29.08,,---,0.00,VWS V12.08,2013-07-24 22:59:00,
2013-07-24 19:04:00,78.2,60.7,29.79,NW,316,9.0,19.6,55,29.08,,---,0.00,VWS V12.08,2013-07-24 23:04:00,
2013-07-24 19:09:00,77.9,60.5,29.79,WNW,285,11.5,19.6,55,29.08,,---,0.00,VWS V12.08,2013-07-24 23:09:00,
2013-07-24 19:14:00,78.1,60.8,29.79,WNW,297,7.3,19.6,55,29.08,,---,0.00,VWS V12.08,2013-07-24 23:14:00,
2013-07-24 19:19:00,39.6,39.6,29.46,North,8,15.7,30.4,100,1.42,,---,1.42,VWS V12.08,2013-07-24 23:19:00,
2013-07-24 19:24:00,77.5,59.9,29.80,WNW,302,9.6,19.6,55,29.08,,---,0.00,VWS V12.08,2013-07-24 23:24:00,
2013-07-24 19:29:00,77.7,60.1,29.80,NW,307,10.6,19.6,55,29.08,,---,0.00,VWS V12.08,2013-07-24 23:29:00,
2013-07-24 19:34:00,77.3,59.8,29.81,NW,304,10.2,19.6,55,29.08,,---,0.00,VWS V12.08,2013-07-24 23:34:00,
2013-07-24 19:39:00,77.4,60.1,29.81,NNW,338,5.1,19.6,55,29.08,,---,0.00,VWS V12.08,2013-07-24 23:39:00,
2013-07-24 19:44:00,77.0,60.1,29.81,WNW,291,6.1,19.6,56,29.08,,---,0.00,VWS V12.08,2013-07-24 23:44:00,
2013-07-24 19:49:00,77.0,60.3,29.81,WNW,297,5.8,19.6,56,29.08,,---,0.00,VWS V12.08,2013-07-24 23:49:00,
2013-07-24 19:54:00,76.9,60.2,29.82,NW,315,8.0,19.6,56,29.08,,---,0.00,VWS V12.08,2013-07-24 23:54:00,
2013-07-24 19:59:00,76.5,60.0,29.82,NNW,338,6.1,19.6,57,29.08,,---,0.00,VWS V12.08,2013-07-24 23:59:00,
2013-07-24 20:04:00,76.5,60.0,29.82,WNW,292,8.2,19.6,57,29.08,,---,0.00,VWS V12.08,2013-07-25 00:04:00,
2013-07-24 20:08:00,76.2,59.8,29.82,WNW,301,10.6,19.6,57,29.08,,---,0.00,VWS V12.08,2013-07-25 00:08:00,
2013-07-24 20:13:00,76.1,59.8,29.83,NW,325,4.2,19.6,57,29.08,,---,0.00,VWS V12.08,2013-07-25 00:13:00,
2013-07-24 20:18:00,76.0,60.0,29.83,WNW,283,4.8,19.6,58,29.08,,---,0.00,VWS V12.08,2013-07-25 00:18:00,
2013-07-24 20:23:00,75.3,59.7,29.83,NNW,333,7.5,19.6,58,29.08,,---,0.00,VWS V12.08,2013-07-25 00:23:00,
2013-07-24 20:28:00,75.4,59.7,29.83,WNW,292,13.7,19.6,58,29.08,,---,0.00,VWS V12.08,2013-07-25 00:28:00,
2013-07-24 20:33:00,75.3,59.5,29.83,WNW,294,8.8,19.6,58,29.08,,---,0.00,VWS V12.08,2013-07-25 00:33:00,
2013-07-24 20:38:00,75.0,59.4,29.84,NW,314,5.3,19.6,58,29.08,,---,0.00,VWS V12.08,2013-07-25 00:38:00,
2013-07-24 20:43:00,74.9,59.5,29.84,WNW,291,6.8,19.6,59,29.08,,---,0.00,VWS V12.08,2013-07-25 00:43:00,
2013-07-24 20:48:00,74.6,59.4,29.84,West,270,7.8,19.6,59,29.08,,---,0.00,VWS V12.08,2013-07-25 00:48:00,
2013-07-24 20:53:00,74.3,59.3,29.84,NNW,330,6.9,19.6,60,29.08,,---,0.00,VWS V12.08,2013-07-25 00:53:00,
2013-07-24 20:58:00,74.2,59.4,29.85,NNW,339,7.7,19.6,60,29.08,,---,0.00,VWS V12.08,2013-07-25 00:58:00,
2013-07-24 21:03:00,74.0,59.4,29.85,NNW,332,6.9,19.6,60,29.08,,---,0.00,VWS V12.08,2013-07-25 01:03:00,
2013-07-24 21:04:00,74.0,59.4,29.85,NNW,332,6.9,19.6,60,29.08,,---,0.00,VWS V12.08,2013-07-25 01:04:00,
2013-07-24 21:08:00,73.6,59.2,29.86,WNW,290,9.8,19.6,61,29.08,,---,0.00,VWS V12.08,2013-07-25 01:08:00,
2013-07-24 21:13:00,73.5,59.4,29.86,NW,308,7.4,19.6,61,29.08,,---,0.00,VWS V12.08,2013-07-25 01:13:00,
2013-07-24 21:18:00,73.5,59.6,29.86,NW,309,9.3,19.6,62,29.08,,---,0.00,VWS V12.08,2013-07-25 01:18:00,
2013-07-24 21:23:00,73.3,59.5,29.86,NW,316,11.5,19.6,62,29.08,,---,0.00,VWS V12.08,2013-07-25 01:23:00,
2013-07-24 21:28:00,72.9,59.4,29.86,NW,321,5.2,19.6,62,29.08,,---,0.00,VWS V12.08,2013-07-25 01:28:00,
2013-07-24 21:33:00,72.6,59.2,29.86,NW,318,12.9,0.0,63,29.08,,---,0.00,VWS V12.08,2013-07-25 01:33:00,
2013-07-24 21:38:00,72.8,59.6,29.87,NW,311,7.9,19.6,63,29.08,,---,0.00,VWS V12.08,2013-07-25 01:38:00,
2013-07-24 21:43:00,72.6,59.6,29.87,NW,312,9.9,19.6,64,29.08,,---,0.00,VWS V12.08,2013-07-25 01:43:00,
2013-07-24 21:48:00,72.4,59.5,29.87,North,359,3.5,19.6,64,29.08,,---,0.00,VWS V12.08,2013-07-25 01:48:00,
2013-07-24 21:53:00,72.3,59.5,29.87,NW,308,8.1,19.6,64,29.08,,---,0.00,VWS V12.08,2013-07-25 01:53:00,
2013-07-24 21:58:00,71.9,59.2,29.87,West,280,7.3,19.6,64,29.08,,---,0.00,VWS V12.08,2013-07-25 01:58:00,
2013-07-24 22:03:00,71.9,59.3,29.87,NNW,336,6.6,19.6,64,29.08,,---,0.00,VWS V12.08,2013-07-25 02:03:00,
2013-07-24 22:08:00,71.5,59.0,29.88,WNW,298,9.0,19.6,65,29.08,,---,0.00,VWS V12.08,2013-07-25 02:08:00,
2013-07-24 22:13:00,71.5,59.1,29.88,NW,325,11.7,19.6,65,29.08,,---,0.00,VWS V12.08,2013-07-25 02:13:00,
2013-07-24 22:18:00,71.5,59.3,29.88,North,1,4.4,19.6,65,29.08,,---,0.00,VWS V12.08,2013-07-25 02:18:00,
2013-07-24 22:23:00,71.2,59.1,29.88,NW,321,8.0,0.0,66,29.08,,---,0.00,VWS V12.08,2013-07-25 02:23:00,
2013-07-24 22:28:00,32.5,32.5,29.58,WNW,300,9.3,17.1,100,0.00,,---,0.00,VWS V12.08,2013-07-25 02:28:00,
2013-07-24 22:33:00,28.2,22.4,30.17,SW,225,3.5,7.8,78,0.03,,---,0.03,VWS V12.08,2013-07-25 02:33:00,
2013-07-24 22:38:00,44.4,40.6,29.62,WSW,239,13.3,18.0,86,0.54,,---,0.50,VWS V12.08,2013-07-25 02:38:00,
2013-07-24 22:43:00,70.3,58.7,29.89,NW,312,9.1,0.0,67,29.08,,---,0.00,VWS V12.08,2013-07-25 02:43:00,
2013-07-24 22:48:00,70.5,58.9,29.89,NW,307,6.2,0.0,67,29.08,,---,0.00,VWS V12.08,2013-07-25 02:48:00,
2013-07-24 22:53:00,28.2,22.4,30.17,SW,225,3.5,7.8,78,0.03,,---,0.03,VWS V12.08,2013-07-25 02:53:00,
2013-07-24 22:58:00,32.3,30.8,30.23,NNE,13,4.3,6.3,94,0.06,,---,0.06,VWS V12.08,2013-07-25 02:58:00,
2013-07-24 23:03:00,35.0,35.0,29.90,NNW,332,0.0,12.4,100,0.10,,---,0.10,VWS V12.08,2013-07-25 03:03:00,
2013-07-24 23:08:00,37.0,28.2,29.93,SW,224,11.1,11.4,70,0.00,,---,0.00,VWS V12.08,2013-07-25 03:08:00,
2013-07-24 23:14:00,70.2,57.2,29.90,North,10,11.2,19.6,63,29.08,,---,0.00,VWS V12.08,2013-07-25 03:14:00,
2013-07-24 23:19:00,70.0,57.0,29.90,North,359,5.1,19.6,63,29.08,,---,0.00,VWS V12.08,2013-07-25 03:19:00,
2013-07-24 23:24:00,70.3,57.4,29.90,North,4,4.3,19.6,64,29.08,,---,0.00,VWS V12.08,2013-07-25 03:24:00,
2013-07-24 23:29:00,42.5,37.6,29.96,West,260,5.5,13.0,83,0.00,,---,0.00,VWS V12.08,2013-07-25 03:29:00,
2013-07-24 23:34:00,45.5,43.3,30.39,South,170,0.0,10.6,92,0.00,,---,0.00,VWS V12.08,2013-07-25 03:34:00,
2013-07-24 23:39:00,69.8,56.6,29.90,North,1,7.0,19.6,63,29.08,,---,0.00,VWS V12.08,2013-07-25 03:39:00,
2013-07-24 23:44:00,45.2,45.2,29.96,NNW,339,0.0,8.5,100,0.27,,---,0.27,VWS V12.08,2013-07-25 03:44:00,
2013-07-24 23:49:00,43.5,38.3,29.75,West,271,5.9,18.0,82,0.00,,---,0.00,VWS V12.08,2013-07-25 03:49:00,
2013-07-24 23:54:00,69.0,56.0,29.91,NNE,22,7.0,19.6,63,29.08,,---,0.00,VWS V12.08,2013-07-25 03:54:00,